Time;durP1;ratioP1;P1;durP2;ratioP2;P2;SDS_P1;SDS_P2;PMS_P1;PMS_P2;Temp;Humidity;BMP_temperature;BMP_pressure;BME280_temperature;BME280_humidity;BME280_pressure;Samples;Min_cycle;Max_cycle;Signal;HPM_P1;HPM_P2
2022/06/18 00:01:35;;;;;;;0.50;0.50;;;15.60;99.90;;;;;;5059529;28;20817;-73
2022/06/18 00:04:06;;;;;;;0.73;0.70;;;15.60;99.90;;;;;;5064432;28;20459;-74
2022/06/18 00:06:37;;;;;;;0.70;0.70;;;15.60;99.90;;;;;;5070325;28;20504;-74
2022/06/18 00:09:05;;;;;;;1.13;0.93;;;15.50;99.90;;;;;;5069579;28;20427;-73
2022/06/18 00:14:18;;;;;;;0.50;0.50;;;15.60;99.90;;;;;;5060638;28;20433;-73
2022/06/18 00:16:45;;;;;;;0.68;0.68;;;15.50;99.90;;;;;;5069889;28;20489;-74
2022/06/18 00:19:12;;;;;;;0.80;0.80;;;15.50;99.90;;;;;;5062478;28;20427;-73
2022/06/18 00:21:42;;;;;;;0.60;0.60;;;15.50;99.90;;;;;;5066251;28;20427;-74
2022/06/18 00:24:18;;;;;;;0.50;0.50;;;15.50;99.90;;;;;;5068041;28;20457;-73
2022/06/18 00:26:47;;;;;;;0.63;0.63;;;15.60;99.90;;;;;;5058297;28;20425;-73
2022/06/18 00:29:17;;;;;;;0.80;0.70;;;15.60;99.90;;;;;;5062491;28;20454;-73
2022/06/18 00:31:45;;;;;;;0.50;0.50;;;15.60;99.90;;;;;;5070002;28;20423;-72
2022/06/18 00:34:12;;;;;;;0.50;0.50;;;15.50;99.90;;;;;;5069680;28;20423;-73
2022/06/18 00:36:41;;;;;;;0.50;0.50;;;15.50;99.90;;;;;;5069007;28;20511;-72
2022/06/18 00:39:12;;;;;;;0.53;0.50;;;15.50;99.90;;;;;;5066013;28;20507;-73
2022/06/18 00:41:42;;;;;;;0.50;0.50;;;15.50;99.90;;;;;;5067633;28;20459;-73
2022/06/18 00:44:18;;;;;;;0.43;0.43;;;15.40;99.90;;;;;;5065681;28;20424;-73
2022/06/18 00:47:10;;;;;;;0.60;0.60;;;15.40;99.90;;;;;;5058303;28;20502;-73
2022/06/18 00:50:02;;;;;;;0.60;0.60;;;15.30;99.90;;;;;;5070448;28;20886;-72
2022/06/18 00:52:54;;;;;;;0.63;0.63;;;15.20;99.90;;;;;;5057681;28;20993;-73
2022/06/18 00:55:40;;;;;;;0.50;0.50;;;15.20;99.90;;;;;;5064010;28;20521;-73
2022/06/18 00:58:18;;;;;;;1.10;0.60;;;15.10;99.90;;;;;;5051037;28;20444;-73
2022/06/18 01:00:48;;;;;;;0.60;0.60;;;15.10;99.90;;;;;;5055922;28;21065;-72
2022/06/18 01:03:29;;;;;;;0.65;0.65;;;15.10;99.90;;;;;;5066046;28;20419;-72
2022/06/18 01:06:03;;;;;;;0.50;0.50;;;15.00;99.90;;;;;;5065121;28;21178;-72
2022/06/18 01:08:33;;;;;;;0.47;0.47;;;15.00;99.90;;;;;;5070920;28;20454;-72
2022/06/18 01:11:04;;;;;;;0.50;0.50;;;14.90;99.90;;;;;;5069412;28;20479;-73
2022/06/18 01:13:39;;;;;;;0.60;0.60;;;14.90;99.90;;;;;;5072073;28;20424;-73
2022/06/18 01:16:09;;;;;;;0.90;0.80;;;14.80;99.90;;;;;;5073727;28;21253;-73
2022/06/18 01:18:38;;;;;;;0.80;0.80;;;14.70;99.90;;;;;;5065265;28;20886;-72
2022/06/18 01:21:27;;;;;;;1.23;1.00;;;14.80;99.90;;;;;;5070800;28;20467;-72
2022/06/18 01:24:10;;;;;;;1.42;1.27;;;14.80;99.90;;;;;;5068379;28;20425;-73
2022/06/18 01:26:38;;;;;;;0.50;0.50;;;14.70;99.90;;;;;;5071550;28;20430;-72
2022/06/18 01:29:05;;;;;;;0.70;0.70;;;14.70;99.90;;;;;;5069839;28;20434;-73
2022/06/18 01:31:32;;;;;;;0.57;0.57;;;14.70;99.90;;;;;;5072025;28;20459;-73
2022/06/18 01:34:04;;;;;;;1.20;0.75;;;14.70;99.90;;;;;;5070314;28;20444;-72
2022/06/18 01:36:34;;;;;;;0.90;0.70;;;14.60;99.90;;;;;;5066035;28;20531;-72
2022/06/18 01:39:04;;;;;;;0.70;0.70;;;14.50;99.90;;;;;;5070885;28;20462;-73
2022/06/18 01:41:51;;;;;;;0.85;0.85;;;14.50;99.90;;;;;;5071825;28;20463;-73
2022/06/18 01:44:46;;;;;;;0.57;0.57;;;14.40;99.90;;;;;;5063479;28;20510;-73
2022/06/18 01:47:49;;;;;;;0.70;0.70;;;14.30;99.90;;;;;;5059820;28;20423;-73
2022/06/18 01:50:28;;;;;;;0.77;0.77;;;14.20;99.90;;;;;;4989972;28;20430;-73
2022/06/18 01:53:03;;;;;;;0.40;0.40;;;14.20;99.90;;;;;;4989856;28;20434;-73
2022/06/18 01:55:40;;;;;;;0.70;0.70;;;14.20;99.90;;;;;;4989131;28;20450;-72
2022/06/18 01:58:13;;;;;;;0.63;0.63;;;14.20;99.90;;;;;;4989926;28;20616;-73
2022/06/18 02:00:42;;;;;;;0.90;0.90;;;14.20;99.90;;;;;;4989783;28;20426;-73
2022/06/18 02:03:09;;;;;;;0.98;0.90;;;14.10;99.90;;;;;;4989518;28;20469;-74
2022/06/18 02:05:37;;;;;;;0.63;0.63;;;14.00;99.90;;;;;;4987062;28;20426;-73
2022/06/18 02:08:08;;;;;;;0.57;0.57;;;14.00;99.90;;;;;;4989873;28;20848;-73
2022/06/18 02:10:47;;;;;;;0.70;0.70;;;13.90;99.90;;;;;;4986832;28;20441;-72
2022/06/18 02:13:15;;;;;;;0.65;0.65;;;13.90;99.90;;;;;;4991144;28;21177;-72
2022/06/18 02:15:45;;;;;;;0.60;0.60;;;13.90;99.90;;;;;;4989422;28;20434;-72
2022/06/18 02:18:16;;;;;;;0.60;0.60;;;13.80;99.90;;;;;;4988780;28;20434;-72
2022/06/18 02:20:49;;;;;;;0.60;0.60;;;13.80;99.90;;;;;;4989360;28;20969;-73
2022/06/18 02:23:17;;;;;;;0.70;0.70;;;13.80;99.90;;;;;;4989131;28;20462;-73
2022/06/18 02:25:44;;;;;;;0.57;0.57;;;13.80;99.90;;;;;;5068961;28;20798;-72
2022/06/18 02:28:30;;;;;;;0.68;0.68;;;13.80;99.90;;;;;;5070839;28;20927;-73
2022/06/18 02:30:59;;;;;;;0.47;0.47;;;13.80;99.90;;;;;;5070174;28;20427;-73
2022/06/18 02:33:45;;;;;;;0.47;0.47;;;13.80;99.90;;;;;;5067658;28;20858;-72
2022/06/18 02:36:23;;;;;;;0.40;0.40;;;13.80;99.90;;;;;;5070238;28;20926;-72
2022/06/18 02:39:16;;;;;;;0.50;0.50;;;13.80;99.90;;;;;;5064600;28;20467;-72
2022/06/18 02:41:44;;;;;;;0.60;0.60;;;13.70;99.90;;;;;;5068367;28;20526;-72
2022/06/18 02:44:12;;;;;;;0.70;0.70;;;13.60;99.90;;;;;;5066380;28;20831;-72
2022/06/18 02:46:42;;;;;;;0.40;0.40;;;13.60;99.90;;;;;;5062843;28;20436;-73
2022/06/18 02:49:12;;;;;;;0.45;0.45;;;13.50;99.90;;;;;;5069269;28;20510;-72
2022/06/18 02:51:46;;;;;;;0.52;0.52;;;13.50;99.90;;;;;;5063759;28;20512;-72
2022/06/18 02:54:19;;;;;;;0.60;0.60;;;13.50;99.90;;;;;;5065417;28;20795;-72
2022/06/18 02:56:48;;;;;;;0.50;0.50;;;13.40;99.90;;;;;;5062306;28;20779;-72
2022/06/18 02:59:18;;;;;;;0.50;0.40;;;13.40;99.90;;;;;;5068050;28;20470;-72
2022/06/18 03:01:45;;;;;;;0.28;0.28;;;13.30;99.90;;;;;;5067071;28;20431;-71
2022/06/18 03:04:12;;;;;;;0.50;0.50;;;13.30;99.90;;;;;;5066833;28;20436;-72
2022/06/18 03:06:39;;;;;;;0.60;0.60;;;13.30;99.90;;;;;;5070470;28;20447;-72
2022/06/18 03:09:06;;;;;;;0.47;0.47;;;13.30;99.90;;;;;;5069467;28;20430;-71
2022/06/18 03:14:18;;;;;;;1.10;0.50;;;13.30;99.90;;;;;;5067103;28;20902;-72
2022/06/18 03:16:45;;;;;;;0.60;0.60;;;13.30;99.90;;;;;;5061640;28;20468;-71
2022/06/18 03:19:23;;;;;;;1.00;0.40;;;13.40;99.90;;;;;;5063550;28;20442;-71
2022/06/18 03:21:52;;;;;;;0.40;0.40;;;13.40;99.90;;;;;;5069344;28;20434;-71
2022/06/18 03:24:18;;;;;;;0.32;0.32;;;13.40;99.90;;;;;;5063777;28;20479;-71
2022/06/18 03:26:45;;;;;;;0.50;0.50;;;13.50;99.90;;;;;;5069069;28;20506;-72
2022/06/18 03:29:15;;;;;;;0.35;0.35;;;13.50;99.90;;;;;;5068286;28;20938;-71
2022/06/18 03:31:44;;;;;;;0.60;0.60;;;13.50;99.90;;;;;;5063167;28;20459;-71
2022/06/18 03:34:11;;;;;;;0.47;0.47;;;13.60;99.90;;;;;;5067406;28;20437;-71
2022/06/18 03:36:38;;;;;;;0.35;0.35;;;13.60;99.90;;;;;;5067424;28;20432;-71
2022/06/18 03:39:07;;;;;;;0.50;0.45;;;13.70;99.90;;;;;;5064797;28;20434;-72
2022/06/18 03:41:36;;;;;;;0.43;0.43;;;13.70;99.90;;;;;;5060464;28;20431;-71
2022/06/18 03:44:05;;;;;;;0.53;0.53;;;13.70;99.90;;;;;;5062161;28;20430;-71
2022/06/18 03:46:35;;;;;;;0.30;0.30;;;13.80;99.90;;;;;;5067285;28;20482;-71
2022/06/18 03:49:06;;;;;;;0.40;0.40;;;13.90;99.90;;;;;;5063158;28;20871;-72
2022/06/18 03:51:34;;;;;;;0.40;0.40;;;14.00;99.90;;;;;;5065364;28;20816;-71
2022/06/18 03:54:00;;;;;;;0.40;0.40;;;14.10;99.90;;;;;;5061747;28;20604;-71
2022/06/18 03:56:30;;;;;;;0.50;0.50;;;14.20;99.90;;;;;;5065769;28;20430;-71
2022/06/18 03:59:00;;;;;;;0.30;0.30;;;14.40;99.90;;;;;;5066923;28;20518;-71
2022/06/18 04:01:31;;;;;;;0.50;0.50;;;14.50;99.90;;;;;;5066454;28;20515;-72
2022/06/18 04:03:58;;;;;;;0.38;0.38;;;14.70;99.90;;;;;;5056248;28;20922;-73
2022/06/18 04:06:27;;;;;;;0.60;0.60;;;14.80;99.90;;;;;;5068844;28;20497;-72
2022/06/18 04:08:53;;;;;;;0.60;0.60;;;15.00;99.90;;;;;;5068217;28;20978;-71
2022/06/18 04:11:21;;;;;;;0.60;0.60;;;15.10;99.90;;;;;;5069522;28;20518;-71
2022/06/18 04:13:48;;;;;;;0.80;0.67;;;15.20;99.90;;;;;;5066632;28;20506;-71
2022/06/18 04:16:15;;;;;;;0.60;0.60;;;15.40;99.90;;;;;;5068116;28;20431;-70
2022/06/18 04:18:43;;;;;;;0.40;0.40;;;15.60;99.90;;;;;;5067099;28;20458;-71
2022/06/18 04:21:16;;;;;;;0.60;0.60;;;15.80;99.90;;;;;;5068148;28;20518;-71
2022/06/18 04:23:43;;;;;;;0.40;0.40;;;16.00;99.90;;;;;;5068276;28;20961;-72
2022/06/18 04:26:11;;;;;;;0.55;0.55;;;16.30;99.90;;;;;;5061167;28;20423;-70
2022/06/18 04:28:42;;;;;;;0.40;0.40;;;16.40;99.90;;;;;;5068922;28;20428;-72
2022/06/18 04:31:09;;;;;;;1.50;0.40;;;16.60;99.90;;;;;;5070004;28;20514;-72
2022/06/18 04:33:38;;;;;;;0.40;0.40;;;16.70;99.90;;;;;;5069797;28;20427;-72
2022/06/18 04:36:06;;;;;;;0.50;0.50;;;16.80;99.90;;;;;;5068571;28;20429;-72
2022/06/18 04:38:35;;;;;;;0.63;0.63;;;16.90;99.90;;;;;;5060286;28;20427;-72
2022/06/18 04:41:01;;;;;;;0.40;0.40;;;17.00;99.90;;;;;;5071791;28;20828;-72
2022/06/18 04:43:28;;;;;;;0.70;0.70;;;17.40;99.90;;;;;;5065425;28;20427;-71
2022/06/18 04:45:56;;;;;;;0.43;0.43;;;18.20;99.90;;;;;;5072234;28;20423;-72
2022/06/18 04:48:23;;;;;;;0.60;0.60;;;19.00;99.90;;;;;;5073125;28;20423;-72
2022/06/18 04:50:52;;;;;;;0.60;0.60;;;19.50;99.90;;;;;;5074185;28;20515;-72
2022/06/18 04:53:19;;;;;;;0.60;0.60;;;19.80;99.90;;;;;;5056972;28;20431;-72
2022/06/18 04:55:46;;;;;;;0.40;0.40;;;20.10;99.90;;;;;;5072702;28;20427;-72
2022/06/18 04:58:13;;;;;;;0.50;0.50;;;20.70;99.90;;;;;;5070931;28;20450;-71
2022/06/18 05:00:40;;;;;;;0.57;0.57;;;21.30;99.90;;;;;;5065370;28;20458;-71
2022/06/18 05:03:14;;;;;;;0.60;0.60;;;22.10;99.90;;;;;;5072513;28;20430;-72
2022/06/18 05:05:41;;;;;;;0.70;0.50;;;22.80;99.90;;;;;;5072401;28;20514;-73
2022/06/18 05:08:07;;;;;;;0.40;0.40;;;23.20;99.90;;;;;;5076155;28;20988;-71
2022/06/18 05:10:34;;;;;;;0.47;0.47;;;23.70;99.90;;;;;;5061302;28;20423;-71
2022/06/18 05:13:02;;;;;;;0.60;0.60;;;24.30;99.90;;;;;;5068520;28;20539;-72
2022/06/18 05:15:36;;;;;;;0.60;0.60;;;24.70;99.90;;;;;;5071690;28;20427;-72
2022/06/18 05:18:03;;;;;;;0.50;0.50;;;25.10;99.90;;;;;;5070316;28;20514;-71
2022/06/18 05:20:30;;;;;;;0.50;0.50;;;25.60;99.90;;;;;;5070604;28;20527;-72
2022/06/18 05:22:58;;;;;;;0.50;0.50;;;26.20;99.90;;;;;;5060481;28;20883;-72
2022/06/18 05:25:24;;;;;;;0.60;0.60;;;26.70;99.90;;;;;;5068906;28;20510;-72
2022/06/18 05:27:57;;;;;;;0.40;0.40;;;26.90;99.90;;;;;;5063472;28;20421;-72
2022/06/18 05:30:27;;;;;;;0.50;0.50;;;27.20;99.90;;;;;;5067196;28;20439;-72
2022/06/18 05:32:54;;;;;;;0.50;0.50;;;27.70;99.90;;;;;;5068991;28;20898;-72
2022/06/18 05:35:21;;;;;;;0.57;0.57;;;27.90;99.90;;;;;;5071118;28;20920;-72
2022/06/18 05:37:50;;;;;;;0.50;0.50;;;28.40;99.90;;;;;;5066463;28;20993;-72
2022/06/18 05:40:18;;;;;;;0.50;0.50;;;28.30;99.90;;;;;;5064128;28;20922;-72
2022/06/18 05:42:44;;;;;;;0.40;0.40;;;28.20;99.80;;;;;;5070207;28;20522;-72
2022/06/18 05:45:14;;;;;;;0.50;0.50;;;28.30;99.60;;;;;;5059596;28;20434;-73
2022/06/18 05:47:42;;;;;;;0.50;0.50;;;28.20;99.30;;;;;;5068274;28;20547;-73
2022/06/18 05:50:14;;;;;;;0.70;0.70;;;28.70;99.80;;;;;;5066339;28;20468;-72
2022/06/18 05:52:44;;;;;;;0.50;0.50;;;29.10;98.60;;;;;;5064708;28;20994;-74
2022/06/18 05:55:13;;;;;;;0.50;0.50;;;29.10;98.90;;;;;;5064939;28;20459;-74
2022/06/18 05:57:48;;;;;;;0.67;0.67;;;29.50;98.50;;;;;;5065009;28;20437;-73
2022/06/18 06:00:17;;;;;;;0.50;0.50;;;29.90;98.00;;;;;;5058848;28;20504;-71
2022/06/18 06:02:44;;;;;;;0.55;0.55;;;30.20;97.40;;;;;;5067085;28;20434;-69
2022/06/18 06:05:11;;;;;;;0.50;0.50;;;30.00;96.70;;;;;;5064743;28;20434;-67
2022/06/18 06:07:39;;;;;;;0.60;0.60;;;30.00;96.60;;;;;;5064792;28;21125;-68
2022/06/18 06:13:06;;;;;;;0.50;0.50;;;30.20;96.20;;;;;;5060575;28;20475;-72
2022/06/18 06:15:33;;;;;;;0.63;0.63;;;30.10;95.30;;;;;;5067412;28;21177;-72
2022/06/18 06:18:00;;;;;;;0.30;0.30;;;29.70;95.10;;;;;;5070201;28;20454;-72
2022/06/18 06:20:31;;;;;;;0.50;0.50;;;29.60;95.60;;;;;;5066053;28;20428;-72
2022/06/18 06:22:59;;;;;;;0.60;0.60;;;29.70;95.70;;;;;;5064865;28;20873;-72
2022/06/18 06:25:26;;;;;;;0.40;0.40;;;29.50;95.00;;;;;;5071644;28;20428;-72
2022/06/18 06:27:53;;;;;;;0.52;0.52;;;29.20;95.30;;;;;;5071309;28;20920;-71
2022/06/18 06:30:19;;;;;;;0.40;0.40;;;28.70;95.80;;;;;;5070972;28;20438;-68
2022/06/18 06:32:46;;;;;;;0.40;0.40;;;28.90;96.30;;;;;;5065951;28;20450;-68
2022/06/18 06:35:13;;;;;;;0.50;0.50;;;29.00;96.10;;;;;;5060465;28;20427;-70
2022/06/18 06:37:40;;;;;;;0.50;0.50;;;28.80;95.70;;;;;;5068834;28;20431;-69
2022/06/18 06:40:08;;;;;;;0.60;0.60;;;27.80;96.20;;;;;;5068539;28;20423;-70
2022/06/18 06:42:51;;;;;;;0.50;0.50;;;27.30;97.00;;;;;;5066220;28;20428;-73
2022/06/18 06:45:29;;;;;;;0.45;0.45;;;27.10;97.40;;;;;;5065028;28;20436;-72
2022/06/18 06:47:56;;;;;;;0.43;0.40;;;27.20;97.40;;;;;;5061197;28;20459;-69
2022/06/18 06:50:27;;;;;;;0.40;0.40;;;27.30;97.30;;;;;;5068524;28;20527;-72
2022/06/18 06:52:55;;;;;;;0.40;0.40;;;28.20;97.30;;;;;;5069799;28;20862;-73
2022/06/18 06:58:09;;;;;;;0.47;0.47;;;29.60;96.50;;;;;;5070873;28;20436;-73
2022/06/18 07:00:42;;;;;;;0.40;0.40;;;30.50;95.60;;;;;;5066885;28;20444;-76
2022/06/18 07:03:20;;;;;;;0.40;0.40;;;31.20;95.10;;;;;;5068286;28;20431;-73
2022/06/18 07:05:47;;;;;;;0.60;0.60;;;31.80;94.20;;;;;;5066821;28;20429;-73
2022/06/18 07:08:14;;;;;;;0.50;0.50;;;31.20;93.90;;;;;;5070213;28;20427;-74
2022/06/18 07:10:40;;;;;;;0.57;0.57;;;31.10;95.00;;;;;;5068538;28;20431;-75
2022/06/18 07:13:07;;;;;;;0.40;0.40;;;31.30;94.10;;;;;;5056295;28;20874;-71
2022/06/18 07:15:35;;;;;;;0.40;0.40;;;31.20;93.70;;;;;;5056861;28;20429;-70
2022/06/18 07:18:03;;;;;;;0.60;0.60;;;30.90;94.00;;;;;;5058705;28;20482;-73
2022/06/18 07:20:31;;;;;;;0.47;0.47;;;31.00;93.80;;;;;;5064550;28;21147;-73
2022/06/18 07:22:58;;;;;;;0.60;0.60;;;30.50;94.00;;;;;;5063884;28;20435;-71
2022/06/18 07:25:25;;;;;;;0.60;0.60;;;30.90;94.30;;;;;;5066333;28;20514;-72
2022/06/18 07:27:54;;;;;;;0.45;0.45;;;30.80;94.10;;;;;;5068180;28;20593;-73
2022/06/18 07:30:21;;;;;;;0.60;0.60;;;31.10;93.90;;;;;;5066935;28;20476;-72
2022/06/18 07:32:49;;;;;;;0.50;0.50;;;31.00;93.50;;;;;;5062296;28;20435;-70
2022/06/18 07:35:28;;;;;;;0.52;0.52;;;31.00;94.00;;;;;;5021708;28;20936;-70
2022/06/18 07:37:57;;;;;;;0.40;0.40;;;31.30;93.70;;;;;;5069968;28;20500;-70
2022/06/18 07:40:28;;;;;;;0.60;0.60;;;31.90;93.30;;;;;;5065769;28;20431;-68
2022/06/18 07:42:55;;;;;;;0.40;0.40;;;32.00;93.20;;;;;;5064372;28;20518;-65
2022/06/18 07:45:24;;;;;;;0.50;0.50;;;31.70;93.10;;;;;;5062655;28;20969;-70
2022/06/18 07:47:52;;;;;;;0.80;0.80;;;31.50;92.70;;;;;;5062773;28;20423;-70
2022/06/18 07:50:21;;;;;;;0.50;0.50;;;31.30;93.00;;;;;;5062215;28;20423;-72
2022/06/18 07:52:48;;;;;;;0.40;0.40;;;31.20;94.20;;;;;;5064544;28;20484;-70
2022/06/18 07:55:22;;;;;;;0.60;0.60;;;31.80;93.60;;;;;;5064609;28;20459;-70
2022/06/18 07:57:49;;;;;;;0.60;0.60;;;32.10;94.20;;;;;;5066824;28;20438;-71
2022/06/18 08:00:20;;;;;;;0.60;0.60;;;32.50;93.20;;;;;;5065783;28;20434;-69
2022/06/18 08:02:48;;;;;;;0.50;0.50;;;32.70;92.20;;;;;;5069989;28;20421;-69
2022/06/18 08:05:27;;;;;;;0.70;0.70;;;32.40;92.50;;;;;;5074752;28;20850;-70
2022/06/18 08:07:54;;;;;;;0.52;0.52;;;32.70;92.00;;;;;;5056524;28;20429;-71
2022/06/18 08:10:45;;;;;;;0.60;0.60;;;33.30;92.20;;;;;;5061901;28;20431;-72
2022/06/18 08:13:12;;;;;;;0.60;0.60;;;33.60;92.00;;;;;;5059084;28;21439;-69
2022/06/18 08:15:47;;;;;;;0.50;0.50;;;34.20;91.50;;;;;;5053949;28;20432;-67
2022/06/18 08:18:14;;;;;;;0.63;0.63;;;33.80;91.10;;;;;;5059065;28;20525;-72
2022/06/18 08:21:05;;;;;;;0.50;0.50;;;33.40;91.80;;;;;;5063309;28;20427;-73
2022/06/18 08:23:34;;;;;;;0.70;0.70;;;33.70;91.60;;;;;;5060189;28;20995;-73
2022/06/18 08:26:01;;;;;;;0.55;0.55;;;33.50;91.10;;;;;;5057985;28;20453;-69
2022/06/18 08:28:37;;;;;;;0.50;0.50;;;33.80;91.20;;;;;;5066234;28;20439;-69
2022/06/18 08:31:05;;;;;;;0.60;0.60;;;34.10;91.70;;;;;;5070903;28;20514;-69
2022/06/18 08:33:32;;;;;;;0.70;0.70;;;34.20;90.90;;;;;;5062696;28;20558;-68
2022/06/18 08:36:01;;;;;;;0.60;0.60;;;34.70;90.80;;;;;;5064273;28;20967;-70
2022/06/18 08:38:29;;;;;;;0.70;0.70;;;34.80;88.90;;;;;;5064735;28;20466;-70
2022/06/18 08:41:23;;;;;;;0.60;0.60;;;34.40;90.00;;;;;;5062866;28;20989;-71
2022/06/18 08:44:19;;;;;;;0.70;0.70;;;34.50;90.60;;;;;;5057690;28;20479;-67
2022/06/18 08:46:58;;;;;;;0.60;0.60;;;33.90;90.20;;;;;;5066800;28;20431;-70
2022/06/18 08:49:59;;;;;;;0.65;0.65;;;33.80;90.80;;;;;;5068051;28;20419;-66
2022/06/18 08:52:44;;;;;;;0.60;0.60;;;33.90;90.40;;;;;;5060150;28;20514;-70
2022/06/18 08:55:35;;;;;;;2.50;0.70;;;34.00;90.30;;;;;;5056405;28;20439;-70
2022/06/18 08:58:05;;;;;;;0.60;0.60;;;34.00;90.20;;;;;;5063289;28;20431;-67
2022/06/18 09:01:06;;;;;;;0.60;0.60;;;34.30;90.80;;;;;;5057710;28;20435;-70
2022/06/18 09:03:41;;;;;;;0.63;0.63;;;34.10;89.10;;;;;;5067091;28;20428;-69
2022/06/18 09:06:27;;;;;;;0.50;0.50;;;33.70;90.30;;;;;;5068233;28;20955;-74
2022/06/18 09:09:04;;;;;;;0.57;0.57;;;33.80;90.40;;;;;;5064441;28;20509;-66
2022/06/18 09:12:07;;;;;;;0.50;0.50;;;34.30;90.10;;;;;;5065197;28;20442;-75
2022/06/18 09:15:07;;;;;;;0.50;0.50;;;34.50;88.70;;;;;;5061112;28;20439;-73
2022/06/18 09:17:33;;;;;;;0.50;0.40;;;34.10;90.20;;;;;;5064055;28;20455;-74
2022/06/18 09:20:29;;;;;;;0.55;0.55;;;35.00;89.40;;;;;;5063153;28;20435;-71
2022/06/18 09:23:04;;;;;;;0.70;0.70;;;35.50;88.50;;;;;;5059345;28;20431;-73
2022/06/18 09:25:44;;;;;;;0.60;0.60;;;34.80;87.30;;;;;;5069969;28;20435;-80
2022/06/18 09:28:37;;;;;;;0.63;0.63;;;34.90;89.60;;;;;;5068189;28;20676;-73
2022/06/18 09:31:12;;;;;;;0.50;0.50;;;35.50;87.60;;;;;;5069166;28;20522;-70
2022/06/18 09:33:59;;;;;;;0.63;0.63;;;35.20;88.60;;;;;;5069618;28;20436;-73
2022/06/18 09:36:37;;;;;;;0.60;0.60;;;34.70;88.10;;;;;;5067810;28;20435;-72
2022/06/18 09:39:11;;;;;;;0.90;0.60;;;33.80;89.20;;;;;;5066161;28;20527;-74
2022/06/18 09:42:02;;;;;;;0.60;0.60;;;34.20;90.00;;;;;;5083401;28;20520;-73
2022/06/18 09:44:50;;;;;;;0.50;0.50;;;34.60;89.20;;;;;;5026526;28;20625;-75
2022/06/18 09:47:22;;;;;;;0.70;0.70;;;34.90;87.50;;;;;;5033440;28;20440;-74
2022/06/18 09:49:50;;;;;;;0.70;0.70;;;35.20;88.40;;;;;;5029616;28;20514;-70
2022/06/18 09:52:36;;;;;;;0.70;0.70;;;35.40;87.70;;;;;;5027087;28;20427;-72
2022/06/18 09:55:09;;;;;;;0.70;0.70;;;35.30;87.30;;;;;;5035321;28;21001;-63
2022/06/18 09:57:41;;;;;;;0.50;0.50;;;35.50;88.70;;;;;;5017904;28;20445;-69
2022/06/18 10:00:21;;;;;;;0.50;0.50;;;35.70;87.10;;;;;;5010997;28;20467;-71
2022/06/18 10:03:12;;;;;;;0.60;0.60;;;35.60;86.90;;;;;;5028631;28;20434;-71
2022/06/18 10:08:37;;;;;;;0.60;0.60;;;36.50;85.70;;;;;;5035444;28;20462;-72
2022/06/18 10:11:11;;;;;;;0.70;0.70;;;37.50;85.20;;;;;;5031668;28;20931;-72
2022/06/18 10:13:51;;;;;;;0.60;0.60;;;37.70;84.00;;;;;;5025512;28;21073;-70
2022/06/18 10:16:57;;;;;;;0.77;0.70;;;37.50;84.60;;;;;;5030860;28;20425;-71
2022/06/18 10:19:47;;;;;;;0.60;0.60;;;37.50;83.50;;;;;;4947728;29;21118;-70
2022/06/18 10:22:33;;;;;;;0.60;0.60;;;36.90;84.90;;;;;;4983107;28;20435;-72
2022/06/18 10:25:30;;;;;;;0.50;0.50;;;37.10;85.00;;;;;;4985137;28;20429;-78
2022/06/18 10:28:11;;;;;;;0.60;0.50;;;37.60;83.80;;;;;;5004502;28;20476;-69
2022/06/18 10:31:00;;;;;;;0.70;0.70;;;37.10;83.00;;;;;;5002768;28;20521;-71
2022/06/18 10:33:42;;;;;;;0.60;0.60;;;37.50;83.20;;;;;;4985421;28;21038;-64
2022/06/18 10:36:22;;;;;;;0.50;0.50;;;37.30;81.70;;;;;;4991180;28;20433;-65
2022/06/18 10:39:20;;;;;;;0.60;0.60;;;36.90;82.00;;;;;;5000038;28;20459;-68
2022/06/18 10:42:05;;;;;;;0.60;0.60;;;37.70;82.80;;;;;;5003738;28;20464;-66
2022/06/18 10:44:58;;;;;;;0.60;0.60;;;38.10;82.00;;;;;;5003315;28;20499;-67
2022/06/18 10:47:33;;;;;;;0.70;0.70;;;38.00;82.50;;;;;;5000496;28;20531;-66
2022/06/18 10:50:04;;;;;;;0.57;0.57;;;37.90;80.90;;;;;;4997332;28;20429;-68
2022/06/18 10:52:31;;;;;;;0.50;0.50;;;38.50;78.70;;;;;;4996524;28;20459;-67
2022/06/18 10:55:25;;;;;;;0.40;0.40;;;38.50;79.60;;;;;;5007500;28;20460;-68
2022/06/18 10:57:52;;;;;;;0.50;0.50;;;38.30;78.80;;;;;;5058286;28;20468;-66
2022/06/18 11:00:25;;;;;;;0.50;0.50;;;38.60;80.80;;;;;;5066025;28;21114;-67
2022/06/18 11:02:58;;;;;;;1.23;0.67;;;38.20;79.10;;;;;;5061421;28;20431;-68
2022/06/18 11:05:29;;;;;;;0.60;0.60;;;38.20;78.70;;;;;;5066996;28;20434;-70
2022/06/18 11:08:00;;;;;;;0.60;0.60;;;37.90;78.30;;;;;;5064373;28;21033;-67
2022/06/18 11:10:32;;;;;;;0.70;0.70;;;37.60;79.20;;;;;;5066211;28;20773;-66
2022/06/18 11:13:05;;;;;;;0.57;0.57;;;37.60;79.70;;;;;;5063797;28;20459;-67
2022/06/18 11:15:37;;;;;;;0.50;0.50;;;37.40;77.70;;;;;;5066695;28;20439;-67
2022/06/18 11:18:17;;;;;;;0.60;0.60;;;36.80;79.20;;;;;;5063829;28;20861;-66
2022/06/18 11:21:17;;;;;;;0.60;0.60;;;36.30;79.10;;;;;;5067360;28;20988;-66
2022/06/18 11:23:52;;;;;;;0.60;0.60;;;36.20;79.80;;;;;;5063288;28;20462;-64
2022/06/18 11:26:37;;;;;;;0.50;0.50;;;36.50;80.30;;;;;;5067437;28;20496;-63
2022/06/18 11:29:12;;;;;;;0.50;0.50;;;36.80;80.20;;;;;;5062871;28;20501;-63
2022/06/18 11:31:47;;;;;;;0.50;0.50;;;36.60;79.60;;;;;;5058018;28;20498;-65
2022/06/18 11:34:22;;;;;;;0.57;0.57;;;36.80;79.60;;;;;;5068870;28;20442;-65
2022/06/18 11:36:52;;;;;;;0.50;0.50;;;37.30;79.20;;;;;;5071625;28;20478;-63
2022/06/18 11:39:34;;;;;;;0.60;0.60;;;37.20;78.60;;;;;;5060302;28;20441;-64
2022/06/18 11:42:10;;;;;;;0.60;0.60;;;36.80;79.30;;;;;;5060964;28;20435;-63
2022/06/18 11:45:17;;;;;;;0.57;0.57;;;36.50;79.30;;;;;;5067113;28;20530;-64
2022/06/18 11:47:49;;;;;;;0.70;0.70;;;36.90;79.50;;;;;;5046266;28;20527;-64
2022/06/18 11:50:31;;;;;;;0.70;0.70;;;36.30;78.50;;;;;;5064828;28;20431;-63
2022/06/18 11:53:16;;;;;;;0.65;0.65;;;36.50;78.50;;;;;;5063530;28;20423;-63
2022/06/18 11:55:48;;;;;;;0.60;0.60;;;36.60;78.70;;;;;;5065927;28;20461;-65
2022/06/18 11:58:50;;;;;;;0.50;0.50;;;37.20;79.30;;;;;;5065326;28;20421;-64
2022/06/18 12:01:28;;;;;;;0.60;0.60;;;36.90;79.20;;;;;;5046525;28;20452;-63
2022/06/18 12:04:01;;;;;;;0.95;0.60;;;37.40;78.70;;;;;;5040844;28;20468;-63
2022/06/18 12:06:45;;;;;;;0.67;0.67;;;37.40;77.50;;;;;;5040073;28;20552;-64
2022/06/18 12:09:25;;;;;;;0.60;0.60;;;37.40;77.90;;;;;;5039871;28;20430;-65
2022/06/18 12:12:21;;;;;;;0.60;0.60;;;36.80;78.50;;;;;;5041295;28;20428;-65
2022/06/18 12:15:15;;;;;;;0.57;0.57;;;36.50;78.40;;;;;;5041239;28;20954;-64
2022/06/18 12:17:44;;;;;;;0.50;0.50;;;36.60;79.50;;;;;;5035440;28;20429;-64
2022/06/18 12:20:36;;;;;;;0.70;0.60;;;36.60;76.50;;;;;;5041256;28;20455;-63
2022/06/18 12:23:12;;;;;;;0.60;0.60;;;36.80;76.40;;;;;;5049058;28;20433;-65
2022/06/18 12:25:47;;;;;;;0.43;0.43;;;37.20;75.40;;;;;;5043840;28;20432;-64
2022/06/18 12:28:25;;;;;;;1.10;0.50;;;37.20;75.20;;;;;;5054710;28;20428;-65
2022/06/18 12:30:58;;;;;;;0.50;0.50;;;37.30;78.20;;;;;;5036551;28;20429;-64
2022/06/18 12:33:49;;;;;;;0.60;0.60;;;37.50;75.90;;;;;;5042947;28;21239;-64
2022/06/18 12:36:37;;;;;;;0.40;0.40;;;37.80;73.10;;;;;;5043222;28;20526;-64
2022/06/18 12:39:39;;;;;;;0.77;0.50;;;36.90;73.10;;;;;;5061561;28;20519;-65
2022/06/18 12:42:54;;;;;;;0.47;0.47;;;36.80;73.70;;;;;;5057429;28;20427;-64
2022/06/18 12:45:40;;;;;;;0.40;0.40;;;36.50;73.30;;;;;;5039322;28;20428;-64
2022/06/18 12:48:18;;;;;;;1.30;0.47;;;36.10;73.80;;;;;;5040682;28;20501;-64
2022/06/18 12:50:58;;;;;;;0.30;0.30;;;36.20;73.50;;;;;;5037501;28;21425;-64
2022/06/18 12:53:27;;;;;;;0.50;0.50;;;36.70;75.60;;;;;;5026597;28;20492;-64
2022/06/18 12:56:19;;;;;;;0.47;0.47;;;37.20;75.50;;;;;;5030134;28;20773;-63
2022/06/18 12:59:07;;;;;;;0.50;0.50;;;36.80;73.80;;;;;;5030410;28;21107;-63
2022/06/18 13:01:44;;;;;;;0.57;0.57;;;36.40;73.70;;;;;;5032347;28;20461;-63
2022/06/18 13:04:17;;;;;;;1.10;0.50;;;36.40;74.60;;;;;;5043208;28;20433;-63
2022/06/18 13:06:55;;;;;;;0.50;0.50;;;36.40;75.30;;;;;;5045354;28;20433;-63
2022/06/18 13:09:44;;;;;;;0.50;0.50;;;36.50;73.70;;;;;;5041888;28;20585;-65
2022/06/18 13:12:43;;;;;;;0.40;0.40;;;36.80;75.20;;;;;;5043589;28;20512;-65
2022/06/18 13:15:13;;;;;;;0.40;0.40;;;36.80;72.40;;;;;;5020721;28;20581;-63
2022/06/18 13:17:47;;;;;;;0.50;0.50;;;36.90;73.40;;;;;;5036587;28;20426;-63
2022/06/18 13:20:25;;;;;;;0.52;0.52;;;37.00;72.80;;;;;;5036817;28;20898;-64
2022/06/18 13:22:52;;;;;;;0.45;0.45;;;36.80;72.30;;;;;;5059231;28;20423;-65
2022/06/18 13:28:20;;;;;;;0.85;0.55;;;36.40;71.60;;;;;;5068522;28;20427;-64
2022/06/18 13:31:02;;;;;;;0.40;0.40;;;36.70;73.50;;;;;;5070263;28;20455;-63
2022/06/18 13:33:56;;;;;;;0.40;0.40;;;36.90;72.90;;;;;;5076724;28;20441;-64
2022/06/18 13:37:14;;;;;;;0.40;0.40;;;37.30;72.70;;;;;;5072757;28;20449;-66
2022/06/18 13:40:30;;;;;;;0.45;0.45;;;37.70;70.10;;;;;;5068589;28;20435;-64
2022/06/18 13:43:02;;;;;;;0.38;0.38;;;37.50;70.30;;;;;;5066781;28;20425;-63
2022/06/18 13:45:41;;;;;;;0.60;0.60;;;37.40;70.10;;;;;;5071805;28;21004;-64